createdAt,value
2018-03-06T00:01:21.366Z,22.30
2018-03-06T00:03:37.916Z,29.70
2018-03-06T00:05:38.936Z,30.80
2018-03-06T00:07:39.927Z,34.93
2018-03-06T00:09:40.926Z,30.37
2018-03-06T00:11:42.828Z,31.33
2018-03-06T00:13:51.677Z,28.37
2018-03-06T00:15:52.837Z,29.60
2018-03-06T00:17:53.883Z,34.07
2018-03-06T00:19:54.862Z,31.17
2018-03-06T00:21:56.684Z,29.60
2018-03-06T00:23:57.866Z,30.20
2018-03-06T00:25:58.963Z,29.13
2018-03-06T00:28:00.034Z,32.77
2018-03-06T00:32:29.136Z,32.60
2018-03-06T00:34:30.120Z,27.30
2018-03-06T00:36:31.084Z,28.23
2018-03-06T00:41:18.103Z,32.53
2018-03-06T00:46:02.556Z,31.00
2018-03-06T00:48:03.786Z,31.67
2018-03-06T00:50:04.828Z,29.47
2018-03-06T00:52:05.872Z,31.90
2018-03-06T00:54:07.559Z,30.97
2018-03-06T00:58:37.954Z,30.87
2018-03-06T01:00:42.307Z,28.27
2018-03-06T01:02:44.097Z,31.43
2018-03-06T01:04:47.849Z,30.90
2018-03-06T01:06:50.465Z,34.13
2018-03-06T01:09:08.712Z,32.27
2018-03-06T01:11:12.335Z,30.03
2018-03-06T01:13:15.316Z,29.97
2018-03-06T01:15:16.518Z,25.33
2018-03-06T01:17:39.124Z,36.03
2018-03-06T01:19:40.360Z,34.90
2018-03-06T01:22:08.990Z,32.03
2018-03-06T01:26:38.278Z,31.43
2018-03-06T01:28:39.352Z,29.20
2018-03-06T01:30:40.339Z,29.60
2018-03-06T01:35:12.330Z,34.93
2018-03-06T01:37:13.399Z,32.10
2018-03-06T01:39:14.436Z,32.20
2018-03-06T01:41:15.432Z,38.70
2018-03-06T01:43:20.143Z,29.47
2018-03-06T01:48:05.166Z,30.27
2018-03-06T01:50:11.955Z,31.13
2018-03-06T01:52:13.127Z,40.63
2018-03-06T01:56:41.688Z,31.10
2018-03-06T01:58:45.109Z,27.93
2018-03-06T02:00:47.352Z,30.30
2018-03-06T02:02:48.468Z,28.00
2018-03-06T02:04:54.891Z,30.13
2018-03-06T02:06:56.622Z,35.23
2018-03-06T02:08:57.718Z,35.73
2018-03-06T02:10:59.887Z,34.97
2018-03-06T02:13:01.788Z,25.97
2018-03-06T02:15:02.903Z,33.17
2018-03-06T02:19:32.036Z,35.67
2018-03-06T02:21:33.045Z,29.17
2018-03-06T02:23:34.097Z,34.87
2018-03-06T03:07:13.801Z,35.17
2018-03-06T03:09:37.369Z,41.53
2018-03-06T03:11:38.409Z,35.67
2018-03-06T03:16:09.995Z,40.23
2018-03-06T03:18:11.362Z,43.00
2018-03-06T03:20:12.376Z,41.23
2018-03-06T03:22:13.377Z,39.20
2018-03-06T03:24:17.206Z,42.83
2018-03-06T03:26:38.152Z,40.63
2018-03-06T03:31:19.912Z,44.57
2018-03-06T03:33:21.420Z,52.10
2018-03-06T03:35:22.874Z,51.07
2018-03-06T03:37:24.541Z,44.20
2018-03-06T03:41:49.263Z,53.10
2018-03-06T03:43:50.515Z,49.50
2018-03-06T03:45:51.715Z,63.23
2018-03-06T03:47:53.096Z,52.50
2018-03-06T03:49:59.195Z,51.10
2018-03-06T03:52:11.940Z,50.07
2018-03-06T03:54:21.637Z,52.93
2018-03-06T03:56:22.898Z,61.70
2018-03-06T03:58:24.059Z,53.00
2018-03-06T04:00:36.088Z,65.13
2018-03-06T04:02:39.799Z,51.00
2018-03-06T04:04:41.208Z,55.20
2018-03-06T04:08:58.841Z,50.70
2018-03-06T04:11:08.165Z,59.53
2018-03-06T04:13:09.504Z,53.20
2018-03-06T04:17:27.753Z,61.20
2018-03-06T04:19:33.096Z,66.97
2018-03-06T04:21:34.370Z,61.00
2018-03-06T04:23:35.585Z,66.60
2018-03-06T04:25:39.305Z,73.20
2018-03-06T04:27:40.697Z,69.87
2018-03-06T04:29:41.888Z,64.10
2018-03-06T04:34:01.018Z,61.30
2018-03-06T04:36:02.261Z,70.53
2018-03-06T04:38:03.318Z,60.30
2018-03-06T04:40:04.482Z,73.10
2018-03-06T04:42:05.633Z,72.37
2018-03-06T04:49:02.694Z,72.87
2018-03-06T04:51:37.886Z,68.67
2018-03-06T04:56:16.658Z,63.47
2018-03-06T04:58:39.576Z,73.50
2018-03-06T05:00:40.887Z,67.30
2018-03-06T05:02:42.135Z,69.65
2018-03-06T05:05:06.280Z,69.47
2018-03-06T05:07:27.467Z,69.10
2018-03-06T05:09:37.719Z,74.67
2018-03-06T05:11:38.921Z,83.68
2018-03-06T05:13:40.132Z,93.85
2018-03-06T05:15:41.371Z,75.53
2018-03-06T05:17:42.470Z,75.80
2018-03-06T05:19:54.945Z,80.00
2018-03-06T05:22:11.012Z,86.65
2018-03-06T05:24:12.175Z,78.12
2018-03-06T05:26:13.363Z,83.68
2018-03-06T05:28:14.485Z,96.60
2018-03-06T05:30:15.562Z,83.53
2018-03-06T05:32:18.358Z,89.10
2018-03-06T05:34:19.448Z,99.10
2018-03-06T05:36:44.998Z,100.50
2018-03-06T05:41:13.880Z,111.70
2018-03-06T05:43:19.280Z,107.63
2018-03-06T05:45:25.650Z,103.50
2018-03-06T05:47:26.788Z,119.95
2018-03-06T05:49:34.252Z,110.25
2018-03-06T05:51:37.311Z,110.78
2018-03-06T05:53:38.585Z,129.52
2018-03-06T05:55:39.842Z,134.57
2018-03-06T05:58:07.165Z,151.30
2018-03-06T06:00:22.605Z,134.55
2018-03-06T06:02:23.768Z,142.80
2018-03-06T06:04:24.822Z,136.67
2018-03-06T06:06:27.226Z,140.88
2018-03-06T06:08:28.325Z,154.47
2018-03-06T06:10:30.931Z,140.32
2018-03-06T06:12:34.710Z,147.95
2018-03-06T06:14:35.919Z,150.15
2018-03-06T06:16:36.973Z,155.97
2018-03-06T06:18:38.008Z,151.25
2018-03-06T06:20:39.069Z,168.98
2018-03-06T06:22:42.913Z,155.10
2018-03-06T06:24:44.765Z,161.30
2018-03-06T06:26:47.577Z,163.60
2018-03-06T06:28:53.524Z,165.10
2018-03-06T06:30:54.755Z,165.47
2018-03-06T06:32:55.791Z,162.73
2018-03-06T06:34:56.878Z,174.20
2018-03-06T06:36:59.036Z,153.77
2018-03-06T06:39:00.215Z,181.40
2018-03-06T06:41:08.596Z,169.95
2018-03-06T06:43:09.826Z,180.35
2018-03-06T06:47:27.540Z,169.90
2018-03-06T06:49:36.800Z,174.50
2018-03-06T06:51:37.891Z,162.17
2018-03-06T06:53:38.910Z,161.98
2018-03-06T06:55:39.979Z,185.63
2018-03-06T06:57:41.043Z,203.10
2018-03-06T06:59:42.083Z,183.75
2018-03-06T07:01:43.102Z,186.32
2018-03-06T07:03:46.196Z,171.03
2018-03-06T07:05:47.956Z,181.35
2018-03-06T07:13:11.682Z,176.50
2018-03-06T07:15:23.190Z,175.60
2018-03-06T07:22:27.959Z,170.67
2018-03-06T07:32:16.502Z,184.17
2018-03-06T07:34:19.096Z,173.53
2018-03-06T09:28:16.217Z,168.83
2018-03-06T09:30:18.024Z,172.10
2018-03-06T09:32:22.142Z,168.43
2018-03-06T09:36:38.934Z,167.10
2018-03-06T09:38:40.665Z,189.23
2018-03-06T09:40:44.263Z,177.90
2018-03-06T09:42:46.837Z,178.50
2018-03-06T09:44:56.806Z,167.93
2018-03-06T09:46:57.860Z,178.07
2018-03-06T09:48:58.855Z,174.90
2018-03-06T09:50:59.827Z,175.10
2018-03-06T09:53:00.937Z,168.73
2018-03-06T09:55:03.648Z,148.87
2018-03-06T09:59:16.550Z,182.60
2018-03-06T10:01:24.220Z,176.03
2018-03-06T10:03:25.630Z,167.77
2018-03-06T10:05:27.548Z,166.77
2018-03-06T10:07:30.461Z,172.93
2018-03-06T10:09:31.713Z,156.43
2018-03-06T10:11:32.780Z,171.93
2018-03-06T10:13:37.695Z,169.77
2018-03-06T10:15:38.841Z,165.00
2018-03-06T10:17:39.944Z,164.87
2018-03-06T10:19:41.019Z,166.13
2018-03-06T10:21:42.124Z,166.30
2018-03-06T10:23:43.146Z,167.10
2018-03-06T10:25:44.141Z,172.03
2018-03-06T10:30:24.987Z,163.87
2018-03-06T10:32:31.024Z,153.57
2018-03-06T10:34:34.373Z,176.83
2018-03-06T10:36:36.803Z,164.70
2018-03-06T10:38:37.917Z,154.27
2018-03-06T10:42:50.020Z,168.13
2018-03-06T10:44:53.946Z,164.30
2018-03-06T10:46:56.566Z,169.80
2018-03-06T10:49:00.551Z,165.67
2018-03-06T10:51:09.697Z,146.47
2018-03-06T10:53:10.814Z,163.27
2018-03-06T10:55:11.951Z,164.60
2018-03-06T10:57:27.610Z,157.40
2018-03-06T10:59:32.995Z,166.43
2018-03-06T11:04:13.627Z,168.77
2018-03-06T11:06:15.193Z,155.50
2018-03-06T11:08:16.230Z,149.60
2018-03-06T11:10:39.163Z,150.57
2018-03-06T11:12:41.058Z,151.27
2018-03-06T11:14:43.513Z,151.47
2018-03-06T11:19:10.264Z,160.63
2018-03-06T11:25:32.312Z,155.40
2018-03-06T11:27:33.826Z,147.63
2018-03-06T11:29:34.901Z,155.13
2018-03-06T11:31:35.884Z,153.93
2018-03-06T11:33:36.863Z,157.30
2018-03-06T11:35:37.854Z,152.90
2018-03-06T11:37:38.837Z,157.00
2018-03-06T11:39:39.848Z,143.43
2018-03-06T11:41:40.824Z,158.53
2018-03-06T11:43:41.786Z,143.00
2018-03-06T11:48:04.254Z,149.43
2018-03-06T11:50:07.728Z,148.97
2018-03-06T11:52:09.559Z,151.40
2018-03-06T11:54:11.286Z,146.40
2018-03-06T11:56:12.273Z,146.60
2018-03-06T12:00:39.826Z,140.23
2018-03-06T12:05:29.495Z,144.43
2018-03-06T12:07:44.604Z,148.07
2018-03-06T12:09:45.645Z,148.50
2018-03-06T12:11:48.095Z,145.27
2018-03-06T12:13:49.581Z,149.57
2018-03-06T12:15:50.598Z,147.20
2018-03-06T12:17:52.047Z,154.13
2018-03-06T12:19:53.672Z,150.43
2018-03-06T12:21:54.738Z,145.97
2018-03-06T12:29:23.819Z,150.20
2018-03-06T12:36:36.062Z,154.30
2018-03-06T12:38:37.624Z,151.07
2018-03-06T12:40:54.396Z,143.23
2018-03-06T12:42:55.970Z,147.63
2018-03-06T12:44:58.720Z,155.00
2018-03-06T12:46:59.762Z,152.27
2018-03-06T12:49:00.719Z,156.50
2018-03-06T12:51:08.390Z,146.07
2018-03-06T12:55:21.144Z,145.53
2018-03-06T13:00:00.305Z,148.17
2018-03-06T13:02:01.787Z,138.07
2018-03-06T13:04:02.802Z,148.93
2018-03-06T13:06:25.823Z,134.00
2018-03-06T13:08:26.906Z,142.70
2018-03-06T13:10:28.405Z,150.27
2018-03-06T13:15:14.319Z,151.10
2018-03-06T13:17:23.240Z,149.80
2018-03-06T13:19:24.288Z,145.00
2018-03-06T13:21:25.310Z,143.40
2018-03-06T13:23:26.356Z,153.87
2018-03-06T13:30:33.691Z,153.93
2018-03-06T13:37:39.737Z,163.20
2018-03-06T13:44:50.596Z,146.13
2018-03-06T13:46:54.436Z,142.83
2018-03-06T13:51:44.664Z,147.93
2018-03-06T13:56:13.065Z,138.93
2018-03-06T13:58:14.164Z,138.60
2018-03-06T14:00:15.138Z,146.87
2018-03-06T14:02:16.142Z,144.07
2018-03-06T14:06:34.565Z,157.50
2018-03-06T14:08:35.536Z,158.50
2018-03-06T14:10:37.393Z,162.10
2018-03-06T14:12:38.393Z,145.57
2018-03-06T14:14:39.359Z,155.13
2018-03-06T14:16:58.055Z,155.33
2018-03-06T14:24:03.761Z,161.27
2018-03-06T14:26:04.713Z,153.77
2018-03-06T14:28:25.738Z,157.60
2018-03-06T14:30:54.135Z,145.90
2018-03-06T14:35:25.111Z,159.27
2018-03-06T14:37:28.629Z,153.70
2018-03-06T14:39:29.690Z,173.63
2018-03-06T14:41:55.054Z,166.90
2018-03-06T14:46:34.136Z,154.70
2018-03-06T14:48:37.205Z,157.73
2018-03-06T14:50:56.798Z,181.43
2018-03-06T14:53:03.953Z,153.67
2018-03-06T14:55:07.712Z,161.33
2018-03-06T14:57:08.797Z,165.17
2018-03-06T15:01:49.439Z,153.33
2018-03-06T15:03:50.496Z,152.03
2018-03-06T15:08:36.697Z,174.17
2018-03-06T15:10:38.620Z,160.30
2018-03-06T15:12:39.733Z,160.27
2018-03-06T15:14:45.629Z,185.03
2018-03-06T15:16:46.649Z,172.73
2018-03-06T15:18:47.622Z,173.00
2018-03-06T15:20:49.220Z,167.37
2018-03-06T15:23:04.032Z,166.90
2018-03-06T15:25:05.844Z,159.80
2018-03-06T15:29:50.274Z,182.57
2018-03-06T15:31:52.008Z,178.03
2018-03-06T15:33:53.534Z,166.13
2018-03-06T15:35:54.524Z,178.37
2018-03-06T15:37:56.692Z,186.57
2018-03-06T15:40:05.272Z,172.57
2018-03-06T15:42:06.274Z,183.63
2018-03-06T15:44:07.920Z,192.80
2018-03-06T15:46:08.918Z,181.83
2018-03-06T15:51:00.092Z,169.83
2018-03-06T15:53:03.790Z,185.37
2018-03-06T15:55:19.773Z,172.30
2018-03-06T15:57:20.909Z,181.57
2018-03-06T15:59:21.901Z,182.07
2018-03-06T16:01:23.840Z,182.43
2018-03-06T16:03:25.807Z,198.10
2018-03-06T16:05:36.654Z,174.27
2018-03-06T16:07:45.717Z,193.03
2018-03-06T16:09:47.108Z,202.93
2018-03-06T16:11:59.495Z,188.03
2018-03-06T16:14:00.645Z,192.90
2018-03-06T16:16:01.620Z,187.90
2018-03-06T16:20:15.316Z,189.10
2018-03-06T16:24:58.686Z,200.87
2018-03-06T16:27:00.762Z,185.00
2018-03-06T16:29:03.908Z,204.77
2018-03-06T16:31:05.010Z,190.50
2018-03-06T16:33:06.019Z,197.03
2018-03-06T16:35:06.977Z,191.93
2018-03-06T16:37:07.948Z,195.30
2018-03-06T16:41:46.517Z,193.57
2018-03-06T16:43:47.467Z,196.90
2018-03-06T16:48:30.043Z,183.63
2018-03-06T16:50:35.036Z,185.60
2018-03-06T16:52:35.988Z,201.70
2018-03-06T16:54:47.406Z,193.17
2018-03-06T16:56:49.119Z,191.97
2018-03-06T16:58:51.988Z,191.60
2018-03-06T17:00:57.357Z,202.40
2018-03-06T17:02:58.534Z,215.60
2018-03-06T17:04:59.487Z,215.23
2018-03-06T17:07:00.439Z,207.70
2018-03-06T17:09:01.414Z,185.47
2018-03-06T17:11:03.779Z,205.73
2018-03-06T17:13:12.473Z,181.60
2018-03-06T17:15:13.781Z,196.10
2018-03-06T17:17:14.767Z,192.47
2018-03-06T17:21:34.195Z,185.43
2018-03-06T17:23:35.202Z,198.17
2018-03-06T17:25:41.622Z,192.57
2018-03-06T17:27:47.099Z,209.33
2018-03-06T17:29:48.575Z,203.30
2018-03-06T17:31:49.596Z,201.50
2018-03-06T17:33:50.583Z,202.77
2018-03-06T17:36:00.961Z,214.70
2018-03-06T17:40:12.479Z,189.73
2018-03-06T17:42:13.731Z,200.30
2018-03-06T17:44:14.709Z,184.30
2018-03-06T17:46:20.190Z,181.53
2018-03-06T17:51:00.375Z,182.33
2018-03-06T17:53:01.476Z,195.63
2018-03-06T17:55:09.851Z,191.53
2018-03-06T17:57:15.567Z,184.43
2018-03-06T17:59:17.193Z,200.67
2018-03-06T18:01:18.139Z,189.53
2018-03-06T18:05:37.044Z,188.90
2018-03-06T18:07:41.899Z,197.83
2018-03-06T18:09:49.327Z,207.50
2018-03-06T18:11:50.616Z,188.27
2018-03-06T18:13:51.604Z,190.87
2018-03-06T18:18:10.032Z,185.57
2018-03-06T18:20:11.020Z,188.07
2018-03-06T18:22:12.710Z,195.70
2018-03-06T18:24:13.697Z,189.37
2018-03-06T18:26:14.744Z,180.87
2018-03-06T18:28:15.755Z,184.97
2018-03-06T18:30:29.585Z,181.13
2018-03-06T18:32:47.344Z,189.93
2018-03-06T18:34:48.517Z,175.77
2018-03-06T18:36:57.724Z,167.97
2018-03-06T18:38:59.688Z,174.77
2018-03-06T18:43:35.804Z,177.50
2018-03-06T18:45:39.887Z,173.83
2018-03-06T18:47:41.136Z,178.63
2018-03-06T18:49:54.412Z,177.80
2018-03-06T18:51:55.525Z,171.13
2018-03-06T18:54:03.521Z,153.80
2018-03-06T18:56:04.636Z,150.27
2018-03-06T18:58:05.614Z,165.00
2018-03-06T19:05:44.635Z,185.47
2018-03-06T19:07:45.655Z,177.97
2018-03-06T19:09:46.648Z,161.73
2018-03-06T19:17:05.818Z,155.63
2018-03-06T19:19:15.227Z,161.70
2018-03-06T19:21:27.590Z,175.87
2018-03-06T19:23:44.057Z,158.37
2018-03-06T19:26:25.667Z,163.00
2018-03-06T19:28:26.722Z,159.70
2018-03-06T19:33:05.564Z,163.93
2018-03-06T19:37:38.017Z,154.13
2018-03-06T19:39:38.993Z,158.67
2018-03-06T19:41:55.236Z,177.47
2018-03-06T19:44:04.558Z,156.67
2018-03-06T19:46:05.850Z,182.40
2018-03-06T19:48:06.968Z,156.97
2018-03-06T19:50:07.935Z,147.97
2018-03-06T19:52:12.065Z,155.73
2018-03-06T19:54:13.042Z,155.57
2018-03-06T19:56:35.615Z,162.03
2018-03-06T20:01:23.483Z,171.13
2018-03-06T20:03:24.485Z,161.47
2018-03-06T20:05:25.542Z,163.73
2018-03-06T20:07:28.680Z,163.67
2018-03-06T20:14:51.072Z,156.97
2018-03-06T20:16:52.051Z,154.00
2018-03-06T20:19:00.236Z,164.30
2018-03-06T20:21:14.376Z,158.57
2018-03-06T20:23:15.363Z,154.50
2018-03-06T20:25:22.380Z,158.90
2018-03-06T20:29:50.252Z,163.37
2018-03-06T20:34:19.010Z,158.77
2018-03-06T20:36:29.253Z,171.33
2018-03-06T20:41:00.187Z,160.40
2018-03-06T20:45:38.174Z,166.47
2018-03-06T20:47:58.310Z,171.87
2018-03-06T20:55:04.513Z,176.10
2018-03-06T20:57:06.292Z,185.90
2018-03-06T21:02:11.426Z,160.60
2018-03-06T21:06:58.535Z,165.50
2018-03-06T21:13:56.806Z,165.10
2018-03-06T21:15:59.913Z,169.83
2018-03-06T21:18:08.252Z,153.43
2018-03-06T21:20:37.600Z,171.77
2018-03-06T21:22:39.215Z,166.67
2018-03-06T21:27:10.158Z,170.37
2018-03-06T21:32:29.907Z,172.47
2018-03-06T21:34:38.416Z,171.07
2018-03-06T21:36:39.477Z,172.43
2018-03-06T21:38:40.511Z,176.73
2018-03-06T21:40:41.634Z,182.13
2018-03-06T21:46:07.884Z,177.53
2018-03-06T21:50:37.097Z,165.70
2018-03-06T21:55:08.885Z,177.40
2018-03-06T21:58:09.822Z,186.27
2018-03-06T22:00:37.383Z,180.77
2018-03-06T22:05:06.296Z,174.23
2018-03-06T22:07:07.987Z,180.27
2018-03-06T22:09:09.057Z,186.77
2018-03-06T22:13:38.901Z,181.40
2018-03-06T22:18:07.725Z,175.80
2018-03-06T22:25:04.809Z,165.33
2018-03-06T22:29:53.772Z,183.53
2018-03-06T22:31:54.768Z,175.93
2018-03-06T22:41:37.615Z,179.43
2018-03-06T22:43:38.626Z,171.37
2018-03-06T22:45:40.579Z,182.03
2018-03-06T22:47:50.628Z,183.50
2018-03-06T22:49:51.861Z,176.70
2018-03-06T22:52:08.360Z,183.43
2018-03-06T22:54:32.189Z,182.43
2018-03-06T22:56:33.214Z,174.87
2018-03-06T22:58:34.226Z,168.40
2018-03-06T23:00:35.206Z,166.83
2018-03-06T23:04:57.705Z,165.20
2018-03-06T23:07:01.345Z,178.90
2018-03-06T23:09:07.978Z,178.90
2018-03-06T23:11:09.105Z,179.60
2018-03-06T23:13:10.062Z,187.97
2018-03-06T23:17:27.256Z,171.93
2018-03-06T23:22:07.021Z,182.27
2018-03-06T23:24:08.025Z,165.27
2018-03-06T23:26:41.296Z,185.90
2018-03-06T23:28:42.308Z,170.97
2018-03-06T23:36:06.019Z,154.23
2018-03-06T23:38:26.776Z,177.87
2018-03-06T23:40:28.104Z,183.37
2018-03-06T23:45:07.069Z,174.50
2018-03-06T23:47:08.096Z,188.20
2018-03-06T23:49:09.202Z,179.43
2018-03-06T23:51:10.191Z,191.50
2018-03-06T23:53:12.242Z,184.33
2018-03-06T23:55:13.284Z,196.57
2018-03-06T23:59:43.520Z,170.43
